Filtrer par Nom Sexe Groupe d'age
Morzine Haut Chablais GranFondo 2008
RG. DOS. TEMPS CAT RG. POINTS
1 624 ROUX NICOLAS 04:39:06:000 D 1 315.00 MASSONGY, France
2 230 GUERAUD PATRICK 04:51:53:000 D 2 313.95 ALPE D HUEZ, France
3 137 OUGIER NICOLAS 04:54:43:000 D 3 312.90 MACOT LA PLAGNE, France
4 647 SANCHEZ EMMANUEL 04:54:50:000 D 4 311.85 ANNECY, FRANCE
5 81 DIAZ STEVE 04:55:58:000 C 1 315.00 SCHWEIGHOUSE, FRANCE
6 111 SMITS SANDER 04:56:35:000 D 5 310.80 UTRECHT, Pays-bas
7 335 SCHILD VALENTIN 04:56:36:000 C 2 313.95 NEUCHATEL, Suisse
8 133 PHILIPONA BRUNO 04:57:02:000 E 1 315.00 MEAUX, FRANCE
9 1703 LABY JEREMY 04:57:20:000 C 3 312.90 SALLANCHES, FRANCE
10 100 POLVERONI DAVID 04:58:19:000 C 4 311.85 NOYAREY, France
11 11 LALLEMENT THIERRY 05:00:13:000 D 6 309.75 FLOING, FRANCE
12 227 LERAT MICHEL 05:00:51:000 F 1 315.00 LES ADRETS, FRANCE
13 649 BLAIN STEPHANE 05:02:04:000 D 7 308.70 LA BIOLLE, FRANCE
14 231 BIXHON CHRISTOPHE 05:03:47:000 C 5 310.80 AYWAILLE, BELGIQUE
15 320 CUENIN FABRICE 05:04:04:000 D 8 307.65 NEUCHATEL, SUISSE
16 633 BOUTHER ROMAIN 05:04:25:000 C 6 309.75 SAINT PAUL EN CHABLAIS, FRANCE
17 208 BRANDY GAEL 05:05:35:000 D 9 306.60 ST LEGIER, SUISSE
18 566 BERNARD MICHEL 05:08:00:000 E 2 313.95 DOUSSARD, FRANCE
19 54 RONAT PHILIPPE 05:08:48:000 E 3 312.90 Fontaine, France
20 134 RUSCETTA GAEL 05:10:08:000 C 7 308.70 SALLANCHES, FRANCE
21 136 BABYTCHEFF MARTIAL 05:10:09:000 E 4 311.85 PERS-JUSSY, France
22 113 GIORGALLA SERGE 05:10:13:000 F 2 313.95 paris, France
23 577 ANTOINE EDDY 05:11:02:000 D 10 305.55 MUTZIG, FRANCE
24 70 JANDARD NICOLAS 05:11:24:000 D 11 304.50 ANNEMASSE, FRANCE
25 138 VAN GANSEN PATRICK 05:11:48:000 E 5 310.80 EKEREN, BELGIQUE
26 310 CHAMPEY LAURENT 05:12:06:000 D 12 303.45 SCHERWILLER, FRANCE
27 651 BEARMAN MARC 05:12:08:000 D 13 302.40 LONDRES, Royaume-Uni
28 332 LEDIN PHILIPPE 05:12:28:000 D 14 301.35 VALLEIRY, FRANCE
29 76 DOUETTE HERVE 05:14:39:000 D 15 300.30 LUXEUIL LES BAINS, FRANCE
30 12 PETERS JIM 05:16:19:000 D 16 299.25 Loughborough, Royaume-Uni
31 219 KAMERZIN STEPHANE 05:16:19:000 D 17 298.20 BELMONT, SUISSE
32 582 VILLAIR VINCENT 05:17:51:000 E 6 309.75 , FRANCE
33 110 GRAHAM MARK 05:17:52:000 D 18 297.15 CARLISLE, Royaume-Uni
34 45 VAN DEN BROEK MARC 05:18:56:000 F 3 312.90 WIEKEVORST, Belgique
35 112 CRESPY BRUNO 05:20:24:000 E 7 308.70 CLARET, FRANCE
36 28 VAN HELVOORT ARNO 05:21:13:000 D 19 296.10 BEUNINGEN, Pays-Bas
37 140 TRAN HUU DAVID 05:21:16:000 D 20 295.05 SAINT ETIENNE, FRANCE
38 69 BERTRAND JEAN-PAUL 05:21:21:000 F 4 311.85 SAINTE FOY LES LYON, FRANCE
39 1711 LODER THIERRY 05:22:05:000 D 21 294.00 CRANVES -SALES, FRANCE
40 645 FREIHOLZ SYLVAIN 05:22:47:000 D 22 292.95 LE SENTIER, Suisse
41 576 LOUET CHRISTOPHE 05:23:13:000 D 23 291.90 CHEVIGNY ST SAUVEUR, FRANCE
42 9 LAMONTAGNE PIERRE MARC 05:24:52:000 F 5 310.80 ST AUBIN, FRANCE
43 102 STOTZ PASCAL 05:26:25:000 D 24 290.85 VOREPPE, FRANCE
44 597 TINE CYRIL 05:26:25:000 D 25 289.80 ST JEOIRE, FRANCE
45 600 MARANGONE YANN 05:26:31:000 D 26 288.75 PASSY, FRANCE
46 640 PIGNARD CHRISTOPHE 05:27:31:000 D 27 287.70 ANNECY LE VIEUX, FRANCE
47 605 ALEXANDER EWAN 05:27:42:000 D 28 286.65 MANCHESTER, Royaume-Uni
48 229 DURAND BRICE 05:27:43:000 D 29 285.60 LE BOURG D'OISANS, FRANCE
49 132 TARDY PATRICE 05:27:52:000 F 6 309.75 VETRAZ-MONTHOUX, FRANCE
50 56 MIES CHRIS 05:28:44:000 D 30 284.55 ESSEN, BELGIQUE
51 639 RAFFINI STEPHANE 05:28:50:000 D 31 283.50 ANNECY, FRANCE
52 1706 CHAFFARDON ANDRE 05:29:16:000 D 32 282.45 aix les bains, France
53 575 DE BERNE LAGARDE SAMUEL 05:29:21:000 C 8 307.65 CHAPONOST, FRANCE
54 55 BESSIERE JEREMIE 05:29:24:000 C 9 306.60 MEYSSAC, FRANCE
55 206 PRESSOIR GERARD 05:31:12:000 F 7 308.70 SOUPPES SUR LOING, FRANCE
56 570 PORTE OLIVIER 05:31:16:000 E 8 307.65 MERY SUR OISE, FRANCE
57 630 BORCARD CHRISTOPHE 05:31:46:000 E 9 306.60 SEYNOD, FRANCE
58 139 FERLAND MARC 05:32:14:000 F 8 307.65 LE SENTIER , SUISSE
59 304 DIBETTA FRANCOIS 05:32:38:000 D 33 281.40 MONTCEAU LES MINES, FRANCE
60 145 GIRARDOT ERIC 05:32:59:000 E 10 305.55 JARRIE, FRANCE
61 80 CLEMENT LAURENT 05:33:24:000 E 11 304.50 ANNONAY, France
62 586 MOUGENOT RAPHAEL 05:34:37:000 C 10 305.55 SAINT GENIS LAVAL, FRANCE
63 27 PATTINIER MANUEL 05:35:36:000 E 12 303.45 LA BALME DE SILLINGY, FRANCE
64 522 UITHAM MAX 05:36:17:000 E 13 302.40 LEUTINGEWOLDE, Pays-Bas
65 329 LABARRE PASCAL 05:36:20:000 E 14 301.35 SAINT PIERRE D ALLEVARD, France
66 319 PARKINS STEVE 05:36:46:000 D 34 280.35 PRANGINS, SUISSE
67 611 TAMANINI MARC 05:36:55:000 C 11 304.50 ANTHY SUR LEMAN, FRANCE
68 606 SMITH PHIL 05:37:01:000 D 35 279.30 MORZINE, FRANCE
69 5 CHANUT CHRISTOPHE 05:37:43:000 E 15 300.30 CRAPONNE, FRANCE
70 627 BAILLEUX DAVID 05:37:43:000 D 36 278.25 VERS, France
71 218 KLAES VINCENT 05:37:59:000 D 37 277.20 MEGEVE, FRANCE
72 142 MALISOUX LAURENT 05:38:56:000 D 38 276.15 VIUZ EN SALLAZ, FRANCE
73 26 VAN OORSCHOT ERIC 05:40:17:000 F 9 306.60 PRINSENBEEK, Pays-bas
74 637 THOME JOEL 05:40:21:000 E 16 299.25 LESCHAUX, FRANCE
75 1710 WILMART BRUNO 05:40:44:000 D 39 275.10 ST JEOIRE, FRANCE
76 223 CUISIN ERIC 05:40:47:000 E 17 298.20 VILLECHETIF, France
77 318 MEURER ALEXANDER 05:40:52:000 D 40 274.05 SCHWARZACH, ALLEMAGNE
78 57 FOURNIER JEROME 05:41:07:000 F 10 305.55 MARTIGNY, Suisse
79 646 FREIHOLZ JEROME 05:41:50:000 D 41 273.00 LE SENTIER, SUISSE
80 228 DAVID GUILLAUME 05:42:22:000 E 18 297.15 LES DEUX ALPES, FRANCE
81 650 SLACK JEFF 05:42:27:000 E 19 296.10 LONDON, Royaume-Uni
82 547 THOMPSON ANDREW 05:44:06:000 D 42 271.95 SALCOMBE, DEVON, Royaume-uni
83 222 KATZ DAVID 05:45:19:000 D 43 270.90 GENEVE, SUISSE
84 89 LAURENT HAMON 05:45:45:000 D 44 269.85 Oze, France
85 214 DEMARES JEAN GUILLAUME 05:46:44:000 D 45 268.80 PARIS, FRANCE
86 525 UITHAM JAN 05:46:44:000 F 11 304.50 ZUIDLAREN, Pays-Bas
87 71 ANGST JEAN MARC 05:47:15:000 E 20 295.05 ALBE, France
88 628 VITTE JEAN LOUIS 05:47:19:000 E 21 294.00 AMBILLY, FRANCE
89 309 VAGNERON DAVID 05:48:24:000 D 46 267.75 GUEMAR, FRANCE
90 1712 ORSIER JEAN PAUL 05:48:39:000 E 22 292.95 CRANVES SALES, FRANCE
91 53 FOURNIER FRANCK 05:48:42:000 D 47 266.70 IRIGNY, FRANCE
92 325 GOVERNATORI SERGE 05:48:57:000 F 12 303.45 NICE, FRANCE
93 207 AUBERT JEROME 05:48:58:000 E 23 291.90 ARC SUR TILLE, FRANCE
94 305 EXCOFFIER CLAUDE 05:49:40:000 F 13 302.40 VALLEIRY, FRANCE
95 38 VINIT ANDRE 05:50:58:000 E 24 290.85 MEYLAN, FRANCE
96 209 JAGGER STEPHEN 05:51:12:000 E 25 289.80 GRETNA, Royaume-Uni
97 528 HOFMAN RON 05:51:49:000 E 26 288.75 GRONINGEN, Pays-Bas
98 617 DEWAELE MICHEL 05:52:40:000 F 14 301.35 ZUYDCOOTE, FRANCE
99 519 GOETTEL NICK 05:52:49:000 D 48 265.65 GENEVE, SUISSE
100 144 BIRLOUEZ JIMMY 05:52:51:000 D 49 264.60 FEIGERES, FRANCE
101 95 MANOJLOVIC BORISLAV 05:52:57:000 F 15 300.30 BOLLWILLER, FRANCE
102 590 KRUST REGIS 05:52:57:000 C 12 303.45 NIFFER, FRANCE
103 114 NAEGELY GUY 05:55:02:000 F 16 299.25 THANN, France
104 607 COLBEAR JON 05:55:22:000 D 50 263.55 ASHFORD, Royaume-Uni
105 311 CARTAGENOVA PAOLO 05:57:14:000 D 51 262.50 SIERRE, Suisse
106 634 PEGEOT VINCENT 05:57:22:000 D 52 261.45 REIGNIER ESERY, FRANCE
107 85 THOMASSON CHRISTOPHE 05:57:34:000 D 53 260.40 CIVRIEUX, FRANCE
108 618 JOSEPHINE PATRICE 05:59:20:000 D 54 259.35 BERNIN, FRANCE
109 516 VEDDERS HILCO 06:00:09:000 D 55 258.30 MARKELO, Pays-Bas
110 626 TOFT BJORN 06:00:23:000 C 13 302.40 CHAMONIX, France
111 530 PONS NICOLAS 06:03:56:000 D 56 257.25 ARCHAMPS, FRANCE
112 306 LE PLOMB DENIS 06:04:27:000 E 27 287.70 CHAMBERY, FRANCE
113 146 PROUDHON ALAIN 06:05:39:000 E 28 286.65 JACOB BELLECOMBETTE, FRANCE
114 330 LEDIN GILLES 06:08:12:000 E 29 285.60 VALLEIRY, FRANCE
115 503 MARTINEAU DIDIER 06:08:37:000 E 30 284.55 FLEXBOURG, FRANCE
116 331 GUERBET JEAN LUC 06:08:43:000 E 31 283.50 RONCHIN, FRANCE
117 531 DEFFAYET LAURENT 06:08:49:000 E 32 282.45 CERNEX, France
118 514 SEAN HOBAN 06:08:54:000 E 33 281.40 CUMBRIA, Royaume-Uni
119 638 CAVAZZANA CORINE 06:09:11:000 A 1 315.00 MEYTHET, FRANCE
120 598 PUTNAM GRAHAM 06:09:23:000 F 17 298.20 PENRITH, Royaume-Uni
121 217 BONTAZ RACHEL 06:10:00:000 AB 1 315.00 MARNAZ, France
122 1709 FERU MICHEL 06:10:48:000 E 34 280.35 SALLANCHES, FRANCE
123 561 GEMEN ROB 06:10:49:000 D 57 256.20 UTRECHT, Pays-bas
124 631 LETOUBLON OLIVIER 06:15:08:000 E 35 279.30 CHAMONIX MONT BLANC, FRANCE
125 596 FORINI FREDERIC 06:15:15:000 C 14 301.35 THONON LES BAINS, FRANCE
126 610 NABET EMMANUEL 06:16:23:000 E 36 278.25 BERNEX, FRANCE
127 303 LALOUX GUY 06:17:24:000 G 1 315.00 BEERSEL, Belgique
128 629 KIEFFER GERARD 06:18:31:000 E 37 277.20 AMBERIEU EN BUGEY, FRANCE
129 49 ARENS JEAN CLAUDE 06:19:23:000 F 18 297.15 FROIDECONCHE, FRANCE
130 545 HILL SIMON 06:20:28:000 D 58 255.15 GENEVE, SUISSE
131 225 BURET MICHEL 06:20:36:000 F 19 296.10 OFFENHEIM, FRANCE
132 625 GUIGNET PASCAL 06:20:38:000 E 38 276.15 JULIENAS, FRANCE
133 620 KILMARTIN JANE 06:21:40:000 AB 2 313.95 CHENE BOUGERIES, Suisse
134 212 BIJLEVELD JEROEN 06:21:51:000 E 39 275.10 WEERT, Pays-Bas
135 94 DICKHOUT JAN 06:22:35:000 F 20 295.05 EINDHOVEN, Pays-Bas
136 63 RUSSIAS JACQUES 06:22:37:000 G 2 313.95 AMBERT, France
137 619 Pellisson Olivier 06:25:00:000 D 59 254.10 Bellignat, France
138 501 PATRICK MATHEY 06:25:01:000 F 21 294.00 CRANVES SALES, FRANCE
139 527 PERIES SERGE 06:25:02:000 F 22 292.95 MEGEVE, FRANCE
140 322 CORONADO JEAN PIERRE 06:26:06:000 F 23 291.90 PONTOISE, FRANCE
141 224 RICHARD JEAN LOUIS 06:26:26:000 F 24 290.85 THONON LES BAINS, FRANCE
142 526 BARTOL WIM 06:26:36:000 E 40 274.05 LEEK, Pays-Bas
143 536 KORVING SANDER 06:27:16:000 D 60 253.05 DRIEBERGEN, Pays-Bas
144 216 BOULADOU ERIC 06:27:40:000 D 61 252.00 BADEVEL, FRANCE
145 558 BENEDETTI PIERRE FRANCOIS 06:27:42:000 E 41 273.00 EAUBONNE, FRANCE
146 636 PERRIER PHILIPPE 06:28:04:000 E 42 271.95 LE NOYER, FRANCE
147 10 DERKS RODERICK 06:28:34:000 D 62 250.95 Den Bosch, Pays-Bas
148 130 STEINER REMY 06:28:56:000 F 25 289.80 CHE_ZARD, Suisse
149 147 GALLO MONIQUE 06:29:11:000 AB 3 312.90 KINGERSHEIM, FRANCE
150 559 FAUBEL GUY NOEL 06:29:12:000 F 26 288.75 IZEAUX, FRANCE
151 529 HIGH DARRELL 06:29:37:000 E 43 270.90 JONGNY, SUISSE
152 210 BAZLEY RUSSELL 06:32:22:000 E 44 269.85 BRISTOL, Royaume-Uni
153 15 DE VLEESCHOUWER DANNY 06:32:28:000 F 27 287.70 GERAARDSBERGEN, Belgique
154 632 MOULIN NORBERT 06:32:42:000 F 28 286.65 VOLLEGES, SUISSE
155 215 CHARRIERE STEPHANE 06:33:27:000 E 45 268.80 AYN, France
156 1702 PERSONNAZ THIERRY 06:34:23:000 E 46 267.75 ANNECY, FRANCE
157 517 RIBOULET DANIEL 06:35:40:000 E 47 266.70 PETIT BORNAND, FRANCE
158 44 VANSPRINGEL JOSEPH 06:38:16:000 E 48 265.65 Vosselaar, Belgique
159 604 WELLS NICK 06:39:13:000 D 63 249.90 LONDON, Royaume-Uni
160 643 ADOBATI CHRISTIAN 06:39:23:000 F 29 285.60 CHAMBERY, FRANCE
161 334 RULLIER VINCENT 06:40:32:000 F 30 284.55 ST PREX, SUISSE
162 616 JAMES DAVID 06:40:42:000 E 49 264.60 ST JEAN D AULPS, FRANCE
163 1707 COUDERT SERGE 06:42:30:000 F 31 283.50 SAINT BONNET DE MURE, FRANCE
164 578 PENIN FRANCK 06:42:45:000 D 64 248.85 ST PRIEST, FRANCE
165 1705 BEVAN DANIEL 06:43:28:000 D 65 247.80 TOWCESTER, Royaume-Uni
166 14 LEMPEREUR FREDDY 06:44:42:000 E 50 263.55 LA SEYNE SUR MER, FRANCE
167 560 BERAUD VIARD CYRIL 06:44:47:000 D 66 246.75 BOURGOIN JALLIEU, FRANCE
168 301 GRAY COLIN 06:46:18:000 G 3 312.90 NOTHINGHAM, Royaume-Uni
169 518 NIJHUIS BERT 06:46:49:000 D 67 245.70 ARNHEM, Pays-Bas
170 203 FINDLAY DAVID 06:47:12:000 E 51 262.50 ST LEGIER, SUISSE
171 573 JAQUES IAN 06:47:12:000 E 52 261.45 MELKSHAM, Royaume-Uni
172 201 ZOPPARDO PATRICK 06:47:59:000 E 53 260.40 BERNIN, FRANCE
173 116 SCHAFFER DANIEL 06:50:56:000 E 54 259.35 LONDRES, Royaume-uni
174 211 FORD MICHAEL 06:50:56:000 E 55 258.30 BRISTOL, Royaume-uni
175 621 BOURDENET PATRICK 06:51:01:000 E 56 257.25 SAONE, FRANCE
176 641 HOULBERT CEDRIC 06:51:54:000 D 68 244.65 BERNEX, FRANCE
177 143 JENOT EMILE 06:51:55:000 G 4 311.85 LE CANET, FRANCE
178 204 PRIESTLEY PETER 06:52:09:000 F 32 282.45 CARLISLE, Royaume-Uni
179 141 CHANTOISEAU PHILIPPE 06:56:08:000 F 33 281.40 VILLE EN SALLAZ, FRANCE
180 317 HODGETTS NICHOLAS 06:56:08:000 E 57 256.20 SUTTON COLFIELD, Royaume-Uni
181 226 ESQUENET NICOLAS 06:56:17:000 D 69 243.60 belfort, France
182 623 SPALDING ANDREW 06:56:24:000 E 58 255.15 CORSEAUX, SUISSE
183 572 MANDIGON DAMIEN 06:56:36:000 D 70 242.55 DIJON, FRANCE
184 579 PALERMO GIOVANNI 06:56:36:000 D 71 241.50 NEUILLY LES DIJON, FRANCE
185 567 BONNETIER JEAN MARIE 07:01:45:000 F 34 280.35 LONGEVILLE LES ST AVOLD, FRANCE
186 583 SAVAJOLS PHILIPPE 07:02:08:000 E 59 254.10 LE VESINET, FRANCE
187 591 BUSH MARTIN 07:03:58:000 D 72 240.45 GENEVE, SUISSE
188 571 JOLY NOEL 07:05:50:000 F 35 279.30 THONON LES BAINS, FRANCE
189 524 POTS DAVID 07:05:54:000 E 60 253.05 HOOGKERK, Pays-Bas
190 511 HOBAN KEVIN 07:06:51:000 D 73 239.40 WORKINGTON, Royaume-Uni
191 220 GROSSET ALAIN 07:10:06:000 G 5 310.80 DEMI QUARTIER, FRANCE
192 308 VAN OPSTAL INEKE 07:10:12:000 AB 4 311.85 PRINSENBEEK, Pays-bas
193 592 BAVEREL MARC 07:10:17:000 E 61 252.00 NEUILLY LES DIJON, FRANCE
194 568 LIEBEAUX PASCAL 07:10:30:000 E 62 250.95 THONON LES BAINS, FRANCE
195 115 NEDELEC PATRICK 07:13:53:000 F 36 278.25 GENAY, FRANCE
196 648 BOUYHRIR ROCHDI 07:14:44:000 D 74 238.35 MARIGNIER, FRANCE
197 534 GEORGET ERIC 07:14:50:000 C 15 300.30 ST GERMAIN EN LAYE, FRANCE
198 549 JOURNEAUX CHARLES 07:17:43:000 E 63 249.90 ESSERT ROMAND, FRANCE
199 508 EICHENBERGER OLIVIER 07:19:13:000 E 64 248.85 DUDINGEN, SUISSE
200 588 DAVIES WILLIAM 07:20:47:000 E 65 247.80 NEYDENS, FRANCE
201 599 JACOBS RUUD 07:21:03:000 D 75 237.30 LOMMEL, BELGIQUE
202 574 MOURIN PASCAL 07:21:43:000 E 66 246.75 MORZINE, FRANCE
203 321 EPINAT JACQUES 07:22:04:000 E 67 245.70 ROANNE, FRANCE
204 635 CASTELLE JEROME 07:23:44:000 D 76 236.25 THYEZ, FRANCE
205 615 JAMES SARAH 07:25:02:000 AB 5 310.80 ST JEAN D AULPS, FRANCE
206 509 ANDERSON DAVID 07:25:23:000 E 68 244.65 JONGNY, SUISSE
207 553 VERCAMMEN BENNY 07:25:33:000 E 69 243.60 WAARLOOS, BELGIQUE
208 552 THORNTON PHIUP 07:26:07:000 E 70 242.55 LONDON, Royaume-Uni
209 213 MCCULLOCH STEVEN 07:26:08:000 E 71 241.50 LONDON, Royaume-Uni
210 542 HOOIJSCHUUR ERIC 07:26:12:000 E 72 240.45 GOUDA, Pays-Bas
211 612 FLANT PIERRE 07:28:49:000 G 6 309.75 SANTEUIL, FRANCE
212 608 PRUDHON PATRICK 07:29:40:000 F 37 277.20 MORZINE, FRANCE
213 538 RIJKSE HARRY 07:32:50:000 F 38 276.15 SLIEDRECHT, Pays-Bas
214 556 GRAF JURGEN 07:44:43:000 D 77 235.20 HEIDELBERG, ALLEMAGNE
215 507 SCHEIDEGGER URS 07:46:19:000 E 73 239.40 RIEDHOLZ, SUISSE
216 515 SCHEIDEGGER GOTTHELF 07:46:59:000 G 7 308.70 ATTISWIL, SUISSE
217 533 GOLDRING NICHOLAS 07:47:23:000 D 78 234.15 LONDRES, Royaume-Uni
218 622 DECHAVANNE YVES 07:49:15:000 F 39 275.10 POUILLY SOUS CHARLIEU, FRANCE
219 613 CATEL CHRISTIAN 07:50:26:000 G 8 307.65 GENEVE, SUISSE
220 601 JACOBS WIL 07:54:53:000 G 9 306.60 STEENSEL, Pays-Bas
222 523 SEINEN MEINE 08:05:47:000 E 74 238.35 OMMEN, Pays-Bas
223 581 DUCREUX PATRICE 08:06:23:000 F 40 274.05 NEUILLY LES DIJON, FRANCE
224 520 BLOCH ROLF 08:08:49:000 E 75 237.30 RIEDHOLZ, SUISSE
225 221 GROSSET ANNIE 08:10:16:000 B 1 315.00 DEMI QUARTIER, FRANCE
226 540 RUTTEN THEO 08:12:05:000 D 79 233.10 CAPELLE AAN DEN IJSSEL, Pays-Bas
227 333 BARD JOEL 08:12:31:000 E 76 236.25 MEWTON, MA, ETATS UNIS
228 593 LAVERGNE MARC 08:17:09:000 E 77 235.20 PARIS, FRANCE
229 587 PICARD GUILLAUME 08:17:43:000 C 16 299.25 ARC SUR TILLE, FRANCE
230 505 OTTOSEN BRIAN TURNER 08:26:10:000 D 80 232.05 LA CONVERSION, SUISSE
231 580 MICHEL JEAN YVES 08:32:19:000 F 41 273.00 MAIZILLY, FRANCE
232 555 VAN DER BLOM ARJAN 08:32:30:000 D 81 231.00 KRIMPEN AAN DEN IJSSEL, Pays-Bas
233 551 VAN DER BLOM ERIK 08:32:37:000 D 82 229.95 BRIELLE, Pays-Bas
234 603 GALLAY FRANCOIS 08:32:45:000 F 42 271.95 LE LYAUD, FRANCE
235 205 DUMONT PHILIPPE 08:34:23:000 F 43 270.90 ANNECY, FRANCE
236 521 IRVING CHRIS 08:35:41:000 E 78 234.15 BRAMPTON, Royaume-Uni
237 569 VAN DE BURGT AARNOUD 08:35:46:000 D 83 228.90 DUBAI, Emirats Arabe Unis
238 554 BAAIJ MAARTEN 08:37:45:000 D 84 227.85 ALBLASSERDAM, Pays-Bas
239 642 KUELSHEIMER JANE 08:37:54:000 AB 6 309.75 CHAMONIX MONT BLANC, FRANCE
240 324 MEGENS JACO 08:38:16:000 C 17 298.20 AMSTERDAM, Pays-Bas
241 589 BAUDET GREGORY 08:38:29:000 D 85 226.80 CULOZ, FRANCE
242 550 WESTERBEEK JAN ALBERT 08:43:06:000 D 86 225.75 SPIJKENISSE, Pays-Bas
243 537 PUT ERWIN 08:43:07:000 D 87 224.70 BARENDRECHT, Pays-Bas
244 541 VERWEIJ ARNEL 08:43:33:000 D 88 223.65 GORINCHEM, Pays-Bas
245 548 HITZERD PAUL 08:44:12:000 D 89 222.60 DORDRECHT, Pays-Bas

GRANFONDO VOSGES

Report de la Granfondo Vosges

Les organisateurs de la Granfondo Vosges auront tout essayé, notamment via une candidature et une sélection pour devenir événement test. Cependant, le contexte sanitaire actuel aura eu raison de l'édition qui devait se tenir le 16 mai prochain.

Par conséquent, nous vous confirmons le report de la Granfondo Vosges au dimanche 12 septembre 2021.

Toutes les personnes inscrites vont recevoir un mail le 8 avril avec les informations utiles. Via ce mail, vous aurez accès à un formulaire pour nous indiquer si :

-vous êtes disponible le dimanche 12 septembre.
OU
-si vous souhaitez reporter votre inscription pour l'édition de 2022. Attention, vous avez jusqu'au 31 mai pour nous faire part de votre décision.

Sans nouvelle de votre part au-delà de cette date, vous serez inscrits définitivement pour le 12 septembre 2021.

Nous comptons sur notre compréhension.
Prenez soin de vous.
L'équipe d'organisation

TOP